Time;durP1;ratioP1;P1;durP2;ratioP2;P2;SDS_P1;SDS_P2;PMS_P1;PMS_P2;Temp;Humidity;BMP_temperature;BMP_pressure;BME280_temperature;BME280_humidity;BME280_pressure;Samples;Min_cycle;Max_cycle;Signal;HPM_P1;HPM_P2
2021/10/14 00:01:11;;;;;;;15.72;7.17;;;;;;;5.34;81.85;101235.65;1798933;79;21043;-80
2021/10/14 00:03:41;;;;;;;11.75;7.22;;;;;;;5.34;81.88;101238.30;1798875;79;21444;-80
2021/10/14 00:06:09;;;;;;;14.83;8.90;;;;;;;5.35;81.90;101239.95;1783608;79;21018;-80
2021/10/14 00:08:35;;;;;;;13.30;9.25;;;;;;;5.37;81.92;101247.31;1798858;79;21098;-79
2021/10/14 00:11:01;;;;;;;10.43;7.35;;;;;;;5.37;81.93;101245.14;1798183;79;21003;-80
2021/10/14 00:13:27;;;;;;;13.03;8.00;;;;;;;5.37;81.96;101245.98;1798117;79;21483;-80
2021/10/14 00:15:53;;;;;;;10.32;6.83;;;;;;;5.36;81.96;101240.33;1798862;79;20999;-80
2021/10/14 00:18:19;;;;;;;15.72;9.08;;;;;;;5.36;81.96;101241.66;1798892;79;21081;-80
2021/10/14 00:20:45;;;;;;;15.10;12.05;;;;;;;5.36;81.99;101241.66;1798461;79;21006;-80
2021/10/14 00:23:11;;;;;;;19.45;11.40;;;;;;;5.34;81.99;101238.30;1798720;79;21042;-80
2021/10/14 00:25:39;;;;;;;14.65;8.65;;;;;;;5.35;81.98;101235.14;1798818;79;21042;-79
2021/10/14 00:28:05;;;;;;;13.15;7.10;;;;;;;5.33;82.01;101228.66;1783207;79;21026;-80
2021/10/14 00:30:31;;;;;;;9.73;6.60;;;;;;;5.34;82.02;101229.52;1798815;79;21053;-79
2021/10/14 00:32:57;;;;;;;15.95;6.50;;;;;;;5.34;82.02;101225.07;1798747;79;21123;-80
2021/10/14 00:35:23;;;;;;;10.38;7.05;;;;;;;5.34;82.04;101230.36;1798699;79;20955;-80
2021/10/14 00:37:49;;;;;;;13.62;7.20;;;;;;;5.33;82.02;101225.17;1798505;79;20982;-80
2021/10/14 00:40:16;;;;;;;14.25;6.62;;;;;;;5.33;82.03;101219.87;1798868;79;21543;-80
2021/10/14 00:42:45;;;;;;;16.70;7.90;;;;;;;5.33;82.03;101226.49;1798756;79;21006;-80
2021/10/14 00:45:12;;;;;;;13.78;6.42;;;;;;;5.33;82.04;101220.73;1798731;79;21656;-79
2021/10/14 00:47:38;;;;;;;10.28;6.53;;;;;;;5.35;82.04;101220.59;1798781;79;21054;-80
2021/10/14 00:50:06;;;;;;;12.73;7.45;;;;;;;5.35;82.04;101223.23;1798687;79;20995;-80
2021/10/14 00:52:33;;;;;;;10.70;6.55;;;;;;;5.37;82.04;101217.38;1798720;79;21463;-79
2021/10/14 00:54:59;;;;;;;11.45;6.85;;;;;;;5.39;82.05;101214.12;1798550;79;20979;-80
2021/10/14 00:57:26;;;;;;;12.03;7.35;;;;;;;5.40;82.05;101210.52;1798742;79;21126;-80
2021/10/14 00:59:52;;;;;;;10.70;6.92;;;;;;;5.39;82.05;101211.00;1798665;79;21682;-80
2021/10/14 01:02:18;;;;;;;11.80;6.45;;;;;;;5.41;82.04;101214.39;1798743;79;20986;-80
2021/10/14 01:04:44;;;;;;;13.00;5.95;;;;;;;5.41;82.01;101209.57;1798748;79;21039;-80
2021/10/14 01:07:10;;;;;;;11.68;6.67;;;;;;;5.42;82.02;101208.59;1798912;79;20987;-80
2021/10/14 01:09:38;;;;;;;12.37;7.78;;;;;;;5.41;82.02;101206.92;1798898;79;21108;-80
2021/10/14 01:12:05;;;;;;;11.05;7.05;;;;;;;5.41;82.02;101213.06;1797787;78;21026;-80
2021/10/14 01:14:31;;;;;;;13.08;6.20;;;;;;;5.40;81.99;101200.80;1798458;79;21085;-80
2021/10/14 01:16:57;;;;;;;11.30;6.65;;;;;;;5.40;81.98;101208.73;1798474;79;21023;-80
2021/10/14 01:19:23;;;;;;;10.60;6.80;;;;;;;5.42;82.00;101208.11;1798941;79;21022;-80
2021/10/14 01:21:50;;;;;;;13.95;6.90;;;;;;;5.42;81.99;101205.95;1798945;79;21223;-80
2021/10/14 01:24:16;;;;;;;10.38;6.62;;;;;;;5.43;81.96;101193.94;1798513;79;20992;-80
2021/10/14 01:26:42;;;;;;;14.43;7.50;;;;;;;5.45;81.96;101198.62;1798616;79;20998;-80
2021/10/14 01:29:08;;;;;;;14.98;7.55;;;;;;;5.45;81.95;101190.69;1798453;79;20987;-80
2021/10/14 01:31:34;;;;;;;14.60;7.03;;;;;;;5.45;81.93;101187.22;1783159;79;21081;-80
2021/10/14 01:34:00;;;;;;;13.35;7.72;;;;;;;5.45;81.94;101178.78;1798197;79;21464;-80
2021/10/14 01:36:26;;;;;;;10.82;6.65;;;;;;;5.46;81.93;101174.34;1791474;79;21090;-80
2021/10/14 01:38:52;;;;;;;10.88;6.97;;;;;;;5.45;81.89;101174.00;1791417;79;20999;-80
2021/10/14 01:41:18;;;;;;;17.62;6.75;;;;;;;5.43;81.88;101167.48;1791402;80;21039;-80
2021/10/14 01:43:44;;;;;;;12.25;7.55;;;;;;;5.41;81.86;101173.86;1791234;80;20999;-80
2021/10/14 01:46:10;;;;;;;10.32;7.20;;;;;;;5.37;81.87;101169.30;1791265;80;21585;-80
2021/10/14 01:48:37;;;;;;;11.15;6.75;;;;;;;5.36;81.87;101166.27;1791531;80;21437;-80
2021/10/14 01:51:03;;;;;;;11.18;6.53;;;;;;;5.34;81.86;101166.89;1791046;80;21467;-80
2021/10/14 01:53:29;;;;;;;13.85;7.10;;;;;;;5.35;81.84;101165.05;1791361;80;21035;-80
2021/10/14 01:55:55;;;;;;;12.82;7.35;;;;;;;5.34;81.83;101166.89;1791138;80;20983;-80
2021/10/14 01:58:22;;;;;;;12.45;6.85;;;;;;;5.34;81.81;101172.17;1791428;80;21108;-80
2021/10/14 02:00:49;;;;;;;13.58;8.03;;;;;;;5.33;81.78;101165.19;1791329;79;20963;-80
2021/10/14 02:03:15;;;;;;;13.10;7.95;;;;;;;5.32;81.77;101167.47;1791439;79;21471;-80
2021/10/14 02:05:41;;;;;;;15.45;7.78;;;;;;;5.30;81.74;101169.40;1791567;79;21011;-80
2021/10/14 02:08:07;;;;;;;14.63;8.60;;;;;;;5.31;81.72;101164.95;1791271;79;20971;-80
2021/10/14 02:10:33;;;;;;;17.48;9.98;;;;;;;5.31;81.71;101165.77;1791491;80;21035;-80
2021/10/14 02:12:59;;;;;;;22.58;11.03;;;;;;;5.32;81.72;101166.14;1791062;79;21023;-80
2021/10/14 02:15:25;;;;;;;15.45;8.38;;;;;;;5.34;81.69;101172.17;1791159;79;21429;-80
2021/10/14 02:17:51;;;;;;;16.30;7.70;;;;;;;5.34;81.67;101168.20;1791488;79;21452;-80
2021/10/14 02:20:17;;;;;;;12.00;7.42;;;;;;;5.37;81.66;101158.72;1791664;80;21459;-80
2021/10/14 02:22:43;;;;;;;13.78;7.25;;;;;;;5.40;81.63;101163.77;1791474;79;22077;-80
2021/10/14 02:25:10;;;;;;;11.83;7.95;;;;;;;5.41;81.60;101157.52;1791324;80;20979;-80
2021/10/14 02:27:36;;;;;;;16.82;8.70;;;;;;;5.42;81.58;101159.19;1791487;79;20952;-80
2021/10/14 02:30:07;;;;;;;17.48;9.40;;;;;;;5.42;81.56;101164.47;1791351;79;21034;-80
2021/10/14 02:32:33;;;;;;;21.42;9.75;;;;;;;5.42;81.55;101169.77;1791458;80;21081;-80
2021/10/14 02:34:59;;;;;;;16.37;7.50;;;;;;;5.43;81.56;101166.16;1791307;79;21156;-80
2021/10/14 02:37:25;;;;;;;13.90;8.15;;;;;;;5.42;81.54;101172.41;1791435;80;20979;-80
2021/10/14 02:39:51;;;;;;;13.68;8.03;;;;;;;5.40;81.52;101171.70;1791331;79;21003;-80
2021/10/14 02:42:17;;;;;;;13.53;7.85;;;;;;;5.39;81.52;101168.68;1791537;79;21330;-81
2021/10/14 02:44:43;;;;;;;15.98;8.08;;;;;;;5.39;81.51;101177.94;1791316;79;21467;-80
2021/10/14 02:47:09;;;;;;;15.03;7.40;;;;;;;5.39;81.52;101173.97;1791252;79;21725;-80
2021/10/14 02:49:36;;;;;;;11.48;6.85;;;;;;;5.42;81.51;101166.27;1791298;79;20935;-80
2021/10/14 02:52:02;;;;;;;11.00;6.58;;;;;;;5.42;81.48;101171.08;1791202;79;20983;-80
2021/10/14 02:54:28;;;;;;;13.10;7.47;;;;;;;5.42;81.48;101175.05;1791400;79;20995;-80
2021/10/14 02:56:54;;;;;;;9.78;6.72;;;;;;;5.45;81.49;101176.64;1791328;79;20987;-80
2021/10/14 02:59:20;;;;;;;11.10;6.05;;;;;;;5.45;81.48;101170.03;1791148;80;21141;-80
2021/10/14 03:01:46;;;;;;;9.28;6.20;;;;;;;5.46;81.46;101169.89;1791351;80;20972;-80
2021/10/14 03:04:12;;;;;;;11.78;6.92;;;;;;;5.47;81.47;101169.42;1791303;80;20966;-80
2021/10/14 03:06:38;;;;;;;11.35;6.30;;;;;;;5.48;81.47;101173.28;1791614;79;21543;-80
2021/10/14 03:09:04;;;;;;;11.80;7.42;;;;;;;5.49;81.46;101164.84;1791161;80;21018;-80
2021/10/14 03:11:31;;;;;;;11.70;7.22;;;;;;;5.50;81.46;101161.23;1791098;79;21958;-80
2021/10/14 03:13:56;;;;;;;11.75;6.97;;;;;;;5.51;81.47;101160.29;1791615;79;20967;-80
2021/10/14 03:16:23;;;;;;;9.85;6.75;;;;;;;5.51;81.48;101157.17;1791252;80;20983;-80
2021/10/14 03:18:49;;;;;;;11.55;6.58;;;;;;;5.51;81.48;101155.84;1791602;79;21466;-80
2021/10/14 03:21:16;;;;;;;9.45;6.62;;;;;;;5.52;81.47;101151.41;1791388;80;20983;-80
2021/10/14 03:23:42;;;;;;;12.23;6.47;;;;;;;5.53;81.46;101150.42;1791855;79;21022;-81
2021/10/14 03:26:08;;;;;;;12.63;7.78;;;;;;;5.54;81.45;101157.40;1791213;80;20990;-81
2021/10/14 03:28:34;;;;;;;14.15;6.95;;;;;;;5.54;81.46;101156.92;1791187;79;21077;-80
2021/10/14 03:31:00;;;;;;;12.35;6.80;;;;;;;5.56;81.45;101159.94;1791286;80;21105;-80
2021/10/14 03:33:26;;;;;;;11.38;6.42;;;;;;;5.56;81.46;101160.75;1791428;79;21022;-80
2021/10/14 03:35:52;;;;;;;8.90;6.37;;;;;;;5.58;81.44;101166.79;1791334;79;21086;-80
2021/10/14 03:38:18;;;;;;;11.68;7.37;;;;;;;5.60;81.44;101156.92;1791463;80;21062;-80
2021/10/14 03:40:44;;;;;;;12.47;6.90;;;;;;;5.61;81.43;101159.09;1780289;80;21082;-80
2021/10/14 03:43:11;;;;;;;13.18;7.45;;;;;;;5.62;81.44;101161.63;1790984;80;21460;-80
2021/10/14 03:45:37;;;;;;;11.48;7.08;;;;;;;5.62;81.43;101162.95;1791581;80;21078;-80
2021/10/14 03:48:03;;;;;;;13.93;6.85;;;;;;;5.66;81.42;101155.61;1791481;80;21619;-81
2021/10/14 03:50:29;;;;;;;14.98;7.35;;;;;;;5.64;81.40;101158.84;1791382;79;21034;-80
2021/10/14 03:52:55;;;;;;;14.23;6.60;;;;;;;5.64;81.41;101150.91;1791538;79;21002;-80
2021/10/14 03:55:21;;;;;;;11.85;6.37;;;;;;;5.65;81.42;101156.09;1791535;80;20950;-80
2021/10/14 03:57:47;;;;;;;9.10;6.22;;;;;;;5.67;81.42;101157.27;1791532;79;21027;-81
2021/10/14 04:00:14;;;;;;;11.57;6.67;;;;;;;5.66;81.42;101152.48;1791677;79;21022;-80
2021/10/14 04:02:40;;;;;;;14.63;7.12;;;;;;;5.67;81.42;101149.34;1791577;79;21018;-80
2021/10/14 04:05:07;;;;;;;13.30;6.62;;;;;;;5.67;81.40;101148.02;1791404;80;21469;-80
2021/10/14 04:07:33;;;;;;;13.18;7.17;;;;;;;5.68;81.40;101153.67;1791396;80;21050;-80
2021/10/14 04:09:59;;;;;;;15.35;7.03;;;;;;;5.69;81.41;101155.37;1791362;80;20978;-80
2021/10/14 04:12:25;;;;;;;9.93;7.10;;;;;;;5.70;81.40;101151.77;1791309;79;21133;-80
2021/10/14 04:14:51;;;;;;;12.30;7.95;;;;;;;5.68;81.40;101144.41;1791385;79;21035;-80
2021/10/14 04:17:17;;;;;;;10.70;7.05;;;;;;;5.69;81.39;101148.28;1791341;80;20995;-80
2021/10/14 04:19:43;;;;;;;15.25;7.87;;;;;;;5.68;81.40;101147.06;1791705;79;20975;-80
2021/10/14 04:22:09;;;;;;;11.97;7.37;;;;;;;5.70;81.40;101147.80;1791253;80;21484;-80
2021/10/14 04:24:38;;;;;;;13.98;7.05;;;;;;;5.73;81.43;101148.87;1791518;80;21915;-80
2021/10/14 04:27:03;;;;;;;12.73;7.62;;;;;;;5.73;81.41;101149.72;1791284;80;20975;-80
2021/10/14 04:29:30;;;;;;;9.60;7.35;;;;;;;5.75;81.40;101152.23;1791165;80;21558;-80
2021/10/14 04:31:55;;;;;;;14.00;6.78;;;;;;;5.76;81.42;101152.13;1791488;79;20906;-80
2021/10/14 04:34:21;;;;;;;10.75;7.35;;;;;;;5.77;81.43;101145.03;1791188;79;20981;-80
2021/10/14 04:36:47;;;;;;;12.85;7.15;;;;;;;5.77;81.43;101142.39;1791435;79;21502;-80
2021/10/14 04:39:15;;;;;;;13.32;7.05;;;;;;;5.76;81.42;101141.54;1791385;79;21516;-81
2021/10/14 04:41:42;;;;;;;10.63;7.45;;;;;;;5.74;81.41;101139.48;1791493;80;20991;-80
2021/10/14 04:44:07;;;;;;;14.00;7.70;;;;;;;5.75;81.42;101144.30;1791102;79;21030;-80
2021/10/14 04:46:33;;;;;;;11.08;7.80;;;;;;;5.75;81.45;101140.33;1791440;79;20995;-81
2021/10/14 04:49:00;;;;;;;18.02;7.90;;;;;;;5.75;81.45;101139.84;1791514;80;21130;-80
2021/10/14 04:51:26;;;;;;;12.95;7.78;;;;;;;5.75;81.45;101139.00;1791578;80;21000;-80
2021/10/14 04:53:52;;;;;;;14.85;8.60;;;;;;;5.76;81.46;101140.70;1791485;79;21462;-80
2021/10/14 04:56:18;;;;;;;12.37;7.75;;;;;;;5.77;81.48;101143.71;1791421;80;21022;-80
2021/10/14 04:58:44;;;;;;;11.65;7.25;;;;;;;5.78;81.48;101141.41;1791569;80;20991;-80
2021/10/14 05:01:10;;;;;;;14.30;8.43;;;;;;;5.79;81.47;101143.09;1791636;80;21027;-81
2021/10/14 05:03:36;;;;;;;11.55;7.90;;;;;;;5.80;81.48;101152.73;1791447;80;20963;-80
2021/10/14 05:06:02;;;;;;;13.38;8.23;;;;;;;5.81;81.50;101148.63;1791481;80;21527;-80
2021/10/14 05:08:28;;;;;;;18.77;9.28;;;;;;;5.84;81.50;101144.91;1791369;80;21554;-80
2021/10/14 05:10:54;;;;;;;14.10;8.10;;;;;;;5.87;81.51;101140.73;1791364;80;21018;-81
2021/10/14 05:13:20;;;;;;;17.40;8.88;;;;;;;5.88;81.52;101131.80;1791064;80;21124;-80
2021/10/14 05:15:46;;;;;;;17.52;8.78;;;;;;;5.91;81.55;101136.88;1791796;79;21018;-81
2021/10/14 05:18:12;;;;;;;14.33;8.93;;;;;;;5.92;81.55;101132.77;1791498;80;21002;-81
2021/10/14 05:20:38;;;;;;;14.78;8.90;;;;;;;5.94;81.57;101137.95;1791476;79;21014;-81
2021/10/14 05:23:04;;;;;;;15.00;9.20;;;;;;;5.94;81.56;101136.15;1791408;80;20990;-80
2021/10/14 05:25:30;;;;;;;14.65;9.03;;;;;;;5.94;81.57;101131.33;1791301;80;21121;-80
2021/10/14 05:27:57;;;;;;;15.72;8.75;;;;;;;5.96;81.59;101132.04;1791377;79;21027;-80
2021/10/14 05:30:23;;;;;;;13.32;8.85;;;;;;;5.98;81.60;101140.72;1791309;80;21432;-81
2021/10/14 05:32:49;;;;;;;13.72;9.00;;;;;;;5.98;81.62;101146.02;1791601;80;20963;-80
2021/10/14 05:35:15;;;;;;;13.98;9.80;;;;;;;5.98;81.63;101150.80;1791281;80;20972;-80
2021/10/14 05:37:41;;;;;;;17.62;9.38;;;;;;;5.98;81.65;101148.66;1797647;79;21612;-80
2021/10/14 05:40:08;;;;;;;15.70;9.45;;;;;;;6.01;81.67;101148.41;1798670;79;21435;-80
2021/10/14 05:42:34;;;;;;;13.15;8.38;;;;;;;6.02;81.68;101142.13;1798532;79;21061;-80
2021/10/14 05:45:00;;;;;;;15.80;9.18;;;;;;;6.02;81.69;101144.78;1798255;79;21507;-80
2021/10/14 05:47:26;;;;;;;12.50;8.55;;;;;;;6.02;81.74;101150.92;1798243;78;21006;-80
2021/10/14 05:49:52;;;;;;;16.50;9.88;;;;;;;6.02;81.75;101148.27;1798642;79;21809;-80
2021/10/14 05:52:18;;;;;;;15.30;9.90;;;;;;;6.03;81.77;101148.64;1798438;79;21030;-80
2021/10/14 05:54:44;;;;;;;13.48;9.58;;;;;;;6.04;81.79;101157.43;1798657;79;20975;-80
2021/10/14 05:57:10;;;;;;;15.50;9.45;;;;;;;6.08;81.78;101158.87;1798739;79;21038;-81
2021/10/14 05:59:36;;;;;;;15.20;9.08;;;;;;;6.10;81.84;101158.73;1778895;79;21055;-80
2021/10/14 06:02:02;;;;;;;13.95;9.98;;;;;;;6.11;81.84;101158.63;1758871;81;21073;-81
2021/10/14 06:04:28;;;;;;;16.87;10.72;;;;;;;6.13;81.87;101151.39;1768171;80;21559;-81
2021/10/14 06:06:54;;;;;;;13.58;9.08;;;;;;;6.15;81.88;101150.80;1776679;80;21498;-82
2021/10/14 06:09:20;;;;;;;14.40;9.33;;;;;;;6.18;81.91;101150.55;1764295;80;20903;-81
2021/10/14 06:11:46;;;;;;;14.53;10.08;;;;;;;6.21;81.92;101146.33;1758902;81;20983;-82
2021/10/14 06:14:12;;;;;;;15.48;9.25;;;;;;;6.23;81.94;101145.70;1758632;81;21103;-82
2021/10/14 06:16:38;;;;;;;16.87;11.18;;;;;;;6.26;81.97;101149.42;1758774;81;20983;-82
2021/10/14 06:19:04;;;;;;;54.08;27.58;;;;;;;6.28;82.00;101146.19;1758425;81;21050;-82
2021/10/14 06:21:30;;;;;;;26.33;17.52;;;;;;;6.32;82.01;101148.95;1758667;81;21086;-82
2021/10/14 06:23:56;;;;;;;18.05;12.80;;;;;;;6.36;82.03;101157.02;1758744;81;20984;-82
2021/10/14 06:26:22;;;;;;;17.07;12.18;;;;;;;6.39;82.06;101156.77;1758533;81;21437;-82
2021/10/14 06:28:48;;;;;;;15.43;10.40;;;;;;;6.40;82.07;101151.80;1758790;81;20971;-82
2021/10/14 06:31:14;;;;;;;22.30;12.33;;;;;;;6.42;82.11;101145.91;1758658;81;21039;-82
2021/10/14 06:33:40;;;;;;;21.12;10.98;;;;;;;6.43;82.11;101146.76;1758815;81;21022;-82
2021/10/14 06:36:06;;;;;;;18.00;11.18;;;;;;;6.43;82.12;101146.28;1758455;81;21523;-83
2021/10/14 06:38:32;;;;;;;16.67;10.08;;;;;;;6.43;82.16;101146.76;1758956;81;21128;-81
2021/10/14 06:40:58;;;;;;;17.80;10.30;;;;;;;6.45;82.19;101145.66;1758751;81;21736;-82
2021/10/14 06:43:24;;;;;;;16.07;10.28;;;;;;;6.46;82.18;101142.05;1741454;81;21079;-82
2021/10/14 06:45:50;;;;;;;16.80;10.48;;;;;;;6.48;82.23;101145.41;1763070;80;20980;-82
2021/10/14 06:48:16;;;;;;;16.45;10.30;;;;;;;6.50;82.22;101141.31;1765497;80;21004;-84
2021/10/14 06:50:42;;;;;;;16.10;11.10;;;;;;;6.51;82.24;101142.50;1778485;80;21041;-83
2021/10/14 06:53:10;;;;;;;21.85;13.08;;;;;;;6.54;82.29;101147.54;1774156;80;20992;-83
2021/10/14 06:55:38;;;;;;;17.00;12.05;;;;;;;6.56;82.30;101154.53;1767737;80;20961;-82
2021/10/14 06:58:04;;;;;;;15.23;11.00;;;;;;;6.59;82.30;101159.58;1746033;82;21426;-83
2021/10/14 07:00:30;;;;;;;23.47;12.28;;;;;;;6.60;82.32;101153.31;1745943;82;21092;-82
2021/10/14 07:02:56;;;;;;;19.48;11.25;;;;;;;6.63;82.35;101151.73;1746598;81;21049;-83
2021/10/14 07:05:22;;;;;;;17.75;11.73;;;;;;;6.66;82.35;101152.80;1746673;82;20996;-83
2021/10/14 07:07:48;;;;;;;18.67;12.63;;;;;;;6.67;82.38;101147.39;1746711;82;21048;-83
2021/10/14 07:10:15;;;;;;;18.30;12.45;;;;;;;6.69;82.39;101152.55;1746546;82;21048;-83
2021/10/14 07:12:41;;;;;;;20.85;13.20;;;;;;;6.73;82.42;101159.28;1749080;80;21005;-83
2021/10/14 07:15:08;;;;;;;18.98;13.18;;;;;;;6.78;82.44;101158.44;1749447;80;21140;-82
2021/10/14 07:17:35;;;;;;;19.45;14.83;;;;;;;6.85;82.48;101152.98;1746832;82;21004;-82
2021/10/14 07:20:03;;;;;;;19.40;13.60;;;;;;;6.88;82.50;101160.20;1746846;82;21458;-82
2021/10/14 07:22:29;;;;;;;18.40;13.48;;;;;;;6.95;82.53;101157.87;1748906;80;21040;-82
2021/10/14 07:24:55;;;;;;;26.40;14.35;;;;;;;7.00;82.55;101157.83;1747068;82;21032;-82
2021/10/14 07:27:21;;;;;;;21.62;15.72;;;;;;;7.05;82.57;101164.08;1747859;80;21493;-82
2021/10/14 07:29:47;;;;;;;21.10;13.98;;;;;;;7.13;82.59;101162.97;1778352;80;20989;-82
2021/10/14 07:32:13;;;;;;;19.00;13.22;;;;;;;7.19;82.62;101154.48;1779317;80;21056;-82
2021/10/14 07:34:39;;;;;;;19.17;12.13;;;;;;;7.25;82.64;101154.44;1779669;80;21043;-82
2021/10/14 07:37:06;;;;;;;20.52;12.20;;;;;;;7.30;82.68;101154.42;1773641;80;21000;-82
2021/10/14 07:39:33;;;;;;;19.07;12.90;;;;;;;7.34;82.70;101147.03;1781518;80;21512;-82
2021/10/14 07:41:59;;;;;;;18.92;11.75;;;;;;;7.41;82.74;101154.34;1782440;80;21465;-82
2021/10/14 07:44:25;;;;;;;15.32;10.70;;;;;;;7.44;82.77;101148.77;1781260;80;20988;-82
2021/10/14 07:46:51;;;;;;;13.85;9.85;;;;;;;7.46;82.77;101145.48;1764936;80;21036;-82
2021/10/14 07:49:18;;;;;;;16.70;12.13;;;;;;;7.46;82.78;101150.80;1782433;80;21032;-82
2021/10/14 07:51:44;;;;;;;17.20;11.45;;;;;;;7.49;82.82;101153.19;1782547;80;21037;-82
2021/10/14 07:54:10;;;;;;;18.67;12.30;;;;;;;7.51;82.84;101147.76;1772030;80;21485;-82
2021/10/14 07:56:36;;;;;;;15.55;11.60;;;;;;;7.50;82.88;101153.55;1781924;80;21558;-82
2021/10/14 07:59:02;;;;;;;18.50;10.58;;;;;;;7.54;82.91;101149.66;1781894;80;21047;-82
2021/10/14 08:01:28;;;;;;;22.87;11.97;;;;;;;7.61;82.91;101154.44;1782667;80;21020;-83
2021/10/14 08:03:54;;;;;;;23.10;12.70;;;;;;;7.62;82.92;101143.70;1782606;80;21126;-82
2021/10/14 08:06:20;;;;;;;21.85;12.43;;;;;;;7.64;82.92;101143.55;1782440;80;20973;-82
2021/10/14 08:08:46;;;;;;;15.93;9.65;;;;;;;7.67;82.95;101151.27;1782763;80;20945;-82
2021/10/14 08:11:12;;;;;;;19.87;11.33;;;;;;;7.73;82.99;101141.44;1782577;80;21493;-83
2021/10/14 08:13:38;;;;;;;17.07;10.58;;;;;;;7.76;83.00;101143.82;1782661;80;21118;-82
2021/10/14 08:16:05;;;;;;;24.90;15.53;;;;;;;7.80;83.03;101143.91;1782466;80;20989;-83
2021/10/14 08:18:31;;;;;;;22.15;15.98;;;;;;;7.86;83.03;101142.04;1766107;79;20987;-83
2021/10/14 08:20:58;;;;;;;18.25;11.10;;;;;;;7.88;83.06;101146.75;1774602;80;21059;-84
2021/10/14 08:23:25;;;;;;;17.80;10.28;;;;;;;7.89;83.09;101137.78;1782527;79;21038;-83
2021/10/14 08:25:52;;;;;;;14.25;10.05;;;;;;;7.89;83.11;101136.45;1781216;80;21071;-83
2021/10/14 08:28:18;;;;;;;14.58;10.82;;;;;;;7.95;83.13;101138.59;1776306;79;21003;-83
2021/10/14 08:30:46;;;;;;;14.28;9.80;;;;;;;8.01;83.16;101136.72;1775938;79;21643;-82
2021/10/14 08:33:14;;;;;;;13.88;8.40;;;;;;;8.04;83.18;101131.13;1707076;82;21006;-83
2021/10/14 08:35:41;;;;;;;13.98;7.92;;;;;;;8.08;83.19;101125.91;1751252;82;21475;-83
2021/10/14 08:38:08;;;;;;;12.58;7.58;;;;;;;8.11;83.21;101129.61;1739541;82;21136;-82
2021/10/14 08:40:34;;;;;;;9.90;7.10;;;;;;;8.12;83.18;101126.47;1732827;82;21189;-83
2021/10/14 08:43:09;;;;;;;10.98;7.37;;;;;;;8.09;83.23;101122.77;1733135;82;21530;-83
2021/10/14 08:45:38;;;;;;;9.83;6.87;;;;;;;8.08;83.26;101126.39;1732930;82;21081;-83
2021/10/14 08:48:04;;;;;;;12.15;7.60;;;;;;;8.09;83.26;101117.45;1732716;82;21037;-82
2021/10/14 08:50:39;;;;;;;10.93;7.28;;;;;;;8.13;83.29;101113.55;1733039;82;21086;-83
2021/10/14 08:53:05;;;;;;;12.13;7.60;;;;;;;8.23;83.30;101117.91;1732986;82;21320;-82
2021/10/14 08:55:35;;;;;;;9.85;6.65;;;;;;;8.36;83.33;101115.85;1732928;82;21049;-83
2021/10/14 08:58:01;;;;;;;8.20;6.35;;;;;;;8.41;83.33;101113.60;1732940;82;21033;-83
2021/10/14 09:00:27;;;;;;;11.30;7.37;;;;;;;8.46;83.36;101103.41;1732960;82;21069;-84
2021/10/14 09:02:53;;;;;;;12.90;7.75;;;;;;;8.45;83.34;101109.70;1747734;82;21030;-83
2021/10/14 09:05:19;;;;;;;14.38;7.10;;;;;;;8.45;83.37;101104.37;1745445;82;21503;-84
2021/10/14 09:07:50;;;;;;;9.55;6.70;;;;;;;8.48;83.42;101109.41;1705024;82;21068;-84
2021/10/14 09:10:16;;;;;;;;;;;;;;;8.51;83.44;101103.81;1720445;83;21554;-83
2021/10/14 09:12:46;;;;;;;9.20;6.53;;;;;;;8.55;83.44;101100.91;1718284;83;20243;-84
2021/10/14 09:15:16;;;;;;;9.65;5.83;;;;;;;8.54;83.45;101092.09;1724027;82;21500;-86
2021/10/14 09:17:52;;;;;;;11.68;6.65;;;;;;;8.59;83.47;101095.63;1745623;82;21111;-84
2021/10/14 09:20:37;;;;;;;8.80;7.05;;;;;;;8.59;83.50;101099.62;1740380;80;21053;-85
2021/10/14 09:23:13;;;;;;;11.45;7.05;;;;;;;8.65;83.48;101095.09;1742357;82;21155;-84
2021/10/14 09:25:45;;;;;;;8.85;7.55;;;;;;;8.66;83.48;101101.58;1746806;82;20985;-84
2021/10/14 09:28:26;;;;;;;14.25;8.40;;;;;;;8.68;83.51;101102.78;1736230;82;21018;-84
2021/10/14 09:31:01;;;;;;;11.80;9.00;;;;;;;8.73;83.55;101103.19;1738796;82;21624;-84
2021/10/14 09:33:39;;;;;;;12.55;8.18;;;;;;;8.77;83.54;101104.58;1714536;83;21014;-83
2021/10/14 09:36:26;;;;;;;13.72;9.75;;;;;;;8.81;83.56;101092.69;1738667;82;21550;-84
2021/10/14 09:39:02;;;;;;;14.05;10.03;;;;;;;8.83;83.58;101096.88;1753701;81;21696;-83
2021/10/14 09:41:25;;;;;;;13.20;9.08;;;;;;;8.93;83.57;101096.41;1751496;81;21054;-84
2021/10/14 09:43:53;;;;;;;14.93;11.85;;;;;;;8.99;83.56;101096.31;1771250;80;21610;-84
2021/10/14 09:46:36;;;;;;;11.73;9.25;;;;;;;9.03;83.58;101088.40;1781566;80;20997;-84
2021/10/14 09:49:06;;;;;;;19.32;15.88;;;;;;;9.04;83.56;101089.56;1750253;82;21063;-83
2021/10/14 09:51:32;;;;;;;19.98;15.15;;;;;;;9.08;83.62;101086.12;1757442;80;21071;-86
2021/10/14 09:53:59;;;;;;;15.95;13.40;;;;;;;9.10;83.61;101088.17;1780426;80;21071;-85
2021/10/14 09:56:27;;;;;;;14.47;12.50;;;;;;;9.13;83.60;101085.70;1776845;79;21155;-86
2021/10/14 09:58:53;;;;;;;17.52;13.78;;;;;;;9.16;83.62;101085.41;1777656;79;21072;-85
2021/10/14 10:01:19;;;;;;;14.18;11.60;;;;;;;9.19;83.61;101076.66;1758151;79;21587;-86
2021/10/14 10:03:45;;;;;;;11.90;9.10;;;;;;;9.19;83.63;101083.30;1759717;81;20994;-86
2021/10/14 10:06:12;;;;;;;13.78;9.98;;;;;;;9.18;83.61;101078.98;1756953;80;21551;-87
2021/10/14 10:08:40;;;;;;;12.47;10.28;;;;;;;9.22;83.66;101073.70;1764140;80;21767;-87
2021/10/14 10:11:10;;;;;;;10.43;9.33;;;;;;;9.22;83.61;101072.37;1758007;80;21085;-87
2021/10/14 10:13:39;;;;;;;12.20;10.00;;;;;;;9.29;83.63;101069.99;1765450;79;21075;-86
2021/10/14 10:16:22;;;;;;;18.27;10.50;;;;;;;9.32;83.60;101075.02;1773213;80;20989;-86
2021/10/14 10:18:50;;;;;;;12.85;9.68;;;;;;;9.37;83.57;101062.94;1777885;80;21075;-86
2021/10/14 10:21:36;;;;;;;13.50;9.58;;;;;;;9.42;83.56;101062.52;1757574;80;21155;-87
2021/10/14 10:24:21;;;;;;;11.78;8.80;;;;;;;9.43;83.56;101054.85;1775227;80;21119;-87
2021/10/14 10:26:49;;;;;;;13.93;10.18;;;;;;;9.41;83.55;101048.36;1765731;80;21106;-87
2021/10/14 10:29:23;;;;;;;12.43;8.68;;;;;;;9.41;83.54;101039.05;1778118;80;21485;-86
2021/10/14 10:32:00;;;;;;;10.70;8.35;;;;;;;9.45;83.50;101040.43;1767475;80;21098;-87
2021/10/14 10:34:49;;;;;;;11.63;8.35;;;;;;;9.49;83.50;101041.81;1772762;80;40325;-87
2021/10/14 10:40:21;;;;;;;15.18;10.10;;;;;;;9.43;83.46;101038.88;1757451;80;21026;-88
2021/10/14 10:43:06;;;;;;;14.40;9.28;;;;;;;9.42;83.47;101035.41;1758319;80;21002;-85
2021/10/14 10:45:50;;;;;;;12.35;9.60;;;;;;;9.42;83.44;101034.07;1778411;80;21072;-85
2021/10/14 10:48:16;;;;;;;8.95;7.17;;;;;;;9.44;83.45;101029.42;1772427;80;21120;-84
2021/10/14 10:50:44;;;;;;;13.08;9.50;;;;;;;9.44;83.43;101020.11;1742837;80;21501;-84
2021/10/14 10:53:17;;;;;;;13.98;10.10;;;;;;;9.43;83.40;101019.75;1780504;79;21145;-85
2021/10/14 10:55:54;;;;;;;7.47;6.25;;;;;;;9.42;83.36;101011.44;1771370;80;21067;-85
2021/10/14 10:58:42;;;;;;;10.93;7.12;;;;;;;9.46;83.37;101010.66;1776328;80;21004;-84
2021/10/14 11:01:09;;;;;;;16.10;9.53;;;;;;;9.47;83.37;101011.82;1779365;80;21587;-85
2021/10/14 11:03:35;;;;;;;15.88;9.78;;;;;;;9.50;83.36;101010.19;1760721;79;21539;-86
2021/10/14 11:06:09;;;;;;;8.20;7.12;;;;;;;9.50;83.35;101012.86;1761598;80;21102;-85
2021/10/14 11:08:37;;;;;;;12.30;8.65;;;;;;;9.50;83.35;101015.52;1770366;80;21015;-86
2021/10/14 11:11:07;;;;;;;12.25;7.00;;;;;;;9.52;83.32;101009.57;1778301;80;21094;-86
2021/10/14 11:13:37;;;;;;;;;;;;;;;9.58;83.30;101008.61;1769847;80;21533;-87
2021/10/14 11:16:07;;;;;;;9.28;7.45;;;;;;;9.62;83.27;101010.00;1769056;80;20175;-86
2021/10/14 11:18:35;;;;;;;8.85;6.37;;;;;;;9.67;83.28;101007.73;1771937;80;21072;-85
2021/10/14 11:21:10;;;;;;;8.75;6.85;;;;;;;9.76;83.22;101008.16;1781080;80;21079;-85
2021/10/14 11:23:40;;;;;;;10.15;8.73;;;;;;;9.82;83.22;100998.23;1760107;81;21038;-85
2021/10/14 11:26:19;;;;;;;12.03;10.53;;;;;;;9.89;83.17;100980.17;1762201;81;21955;-85
2021/10/14 11:28:59;;;;;;;11.38;9.95;;;;;;;10.00;83.16;100980.44;1757393;80;21058;-87